熊本空港の過去48時間の天気

熊本空港 (Kumamoto)

現在時刻: 1/22 02:58 JST (1/21 17:58 UTC) 以下の時間は現地時間です。

過去48時間のMETAR気象情報
時間 風向 風速(m/s) 視程 気温(℃) 湿度(%) 気圧(hPa) 天気現象
21 21:00 東北東 4 10km以上 7 53 1018
21 20:00 北東 4 10km以上 7 57 1018
21 19:00 東北東 4 10km以上 7 61 1018
21 18:11 東北東 5 10km以上 8 57 1018
21 18:00 不定 2 10km以上 8 61 1018
21 17:00 西南西 2 10km以上 10 50 1018
21 16:00 西北西 3 10km以上 12 44 1017
21 15:00 北北西 3 10km以上 12 38 1018
21 14:00 不定 2 10km以上 12 41 1018
21 13:00 不定 2 10km以上 11 40 1019
21 12:00 西北西 3 10km以上 11 43 1020
21 11:00 2 10km以上 9 50 1020
21 10:00 北東 2 10km以上 7 61 1021
21 09:00 南南東 2 10km以上 5 81 1021
21 08:00 不定 1 10km以上 0 100 1021
21 07:00 不定 1 10km以上 1 93 1021
21 06:10 北東 2 9,000m 1 100 1020
20 21:00 1 10km以上 2 87 1020
20 20:00 不定 1 10km以上 4 87 1020
20 19:00 静穏 0 10km以上 7 66 1019
20 18:00 南西 2 10km以上 7 70 1018
20 17:00 南南西 2 10km以上 10 54 1018
20 16:00 南南西 2 10km以上 12 50 1018
20 15:00 不定 2 10km以上 12 50 1018
20 14:00 不定 2 10km以上 12 44 1018
20 13:00 西北西 3 10km以上 12 41 1018
20 12:00 不定 1 7,000m 10 54 1019
20 11:00 北北西 2 6,000m 9 66 1020
20 10:00 西 2 7,000m 7 81 1020
20 09:00 不定 1 7,000m 6 87 1020
20 08:00 2 7,000m 2 100 1020
20 07:00 東北東 2 6,000m 1 100 1019
20 06:10 東北東 2 6,000m 3 100 1019
RJFT 211200Z 06008KT CAVOK 07/M02 Q1018
RJFT 211100Z 05007KT CAVOK 07/M01 Q1018
RJFT 211000Z 06008KT CAVOK 07/00 Q1018
RJFT 210911Z 06010KT CAVOK 08/00 Q1018 RMK A3008
RJFT 210900Z VRB04KT CAVOK 08/01 Q1018
RJFT 210800Z 25003KT CAVOK 10/M00 Q1018
RJFT 210700Z 30005KT 270V340 CAVOK 12/M00 Q1017
RJFT 210600Z 33005KT 270V040 CAVOK 12/M02 Q1018
RJFT 210500Z VRB03KT CAVOK 12/M01 Q1018
RJFT 210400Z VRB04KT CAVOK 11/M02 Q1019
RJFT 210300Z 30006KT 260V010 CAVOK 11/M01 Q1020
RJFT 210200Z 36004KT 320V040 CAVOK 09/M01 Q1020
RJFT 210100Z 04003KT 340V120 CAVOK 07/00 Q1021
RJFT 210000Z 15003KT 110V230 CAVOK 05/02 Q1021
RJFT 202300Z VRB01KT CAVOK M00/M00 Q1021
RJFT 202200Z VRB01KT CAVOK 01/M00 Q1021
RJFT 202110Z 05004KT 9000 NSC 01/01 Q1020 RMK 1AC150 A3013
RJFT 201200Z 10001KT CAVOK 02/00 Q1020
RJFT 201100Z VRB01KT CAVOK 04/02 Q1020
RJFT 201000Z 00000KT CAVOK 07/01 Q1019
RJFT 200900Z 22003KT 190V270 CAVOK 07/02 Q1018
RJFT 200800Z 21003KT CAVOK 10/01 Q1018
RJFT 200700Z 21004KT 170V250 CAVOK 12/02 Q1018
RJFT 200600Z VRB04KT CAVOK 12/02 Q1018
RJFT 200500Z VRB03KT 9999 FEW035 BKN/// 12/M00 Q1018
RJFT 200400Z 30005KT 220V350 9999 FEW035 BKN/// 12/M01 Q1018
RJFT 200300Z VRB02KT 7000 FEW030 10/01 Q1019
RJFT 200200Z 34004KT 310V020 6000 FEW030 09/03 Q1020
RJFT 200100Z 27003KT 220V340 7000 NSC 07/04 Q1020
RJFT 200000Z VRB02KT 7000 NSC 06/04 Q1020
RJFT 192300Z 09003KT 7000 NSC 02/02 Q1020
RJFT 192200Z 06003KT 6000 NSC 01/01 Q1019
RJFT 192110Z 06004KT 6000 NSC 03/03 Q1019 RMK A3010